CW6318 Weather Reports


time (UTC)temp
C
wind
direction
speed
KPH
gust
KPH
rain 1hr
cm
rain 24hr
cm
rain mn
cm
humidity
%
barometer
mb
20260509072958 -17 0.0 0.0 0.00 0.00 0.00 1006.8
20260509072458 -17 0.0 0.0 0.00 0.00 0.00 1006.9
20260509071958 -17 0.0 0.0 0.00 0.00 0.00 1006.8
20260509070957 9 246 0.0 0.0 0.00 0.00 0.00 78 1006.8
20260509070459 9 246 0.0 0.0 0.00 0.00 0.00 78 1006.7
20260509065958 9 246 0.0 0.0 0.00 0.00 0.00 78 1006.7
20260509065459 10 246 0.0 0.0 0.00 0.00 0.00 78 1006.6
20260509064959 10 246 0.0 0.0 0.00 0.00 0.00 78 1006.6
20260509064458 10 246 0.0 0.0 0.00 0.00 0.00 78 1006.6
20260509063959 10 246 0.0 0.0 0.00 0.00 0.00 78 1006.4
20260509063459 10 246 0.0 0.0 0.00 0.00 0.00 78 1006.5
20260509062958 10 246 0.0 0.0 0.00 0.00 0.00 78 1006.5
20260509062500 10 246 0.0 0.0 0.00 0.00 0.00 78 1006.6
20260509062004 10 246 0.0 0.0 0.00 0.00 0.00 77 1006.6
20260509061459 10 246 0.0 0.0 0.00 0.00 0.00 77 1006.6
20260509060959 11 246 0.0 0.0 0.00 0.00 0.00 77 1006.6
20260509060459 11 246 0.0 0.0 0.00 0.00 0.00 77 1006.5
20260509060000 11 246 0.0 0.0 0.00 0.00 0.00 77 1006.6
20260509055500 11 246 0.0 0.0 0.00 0.00 0.00 77 1006.5
20260509054959 11 246 0.0 0.0 0.00 0.00 0.00 77 1006.6
20260509053959 11 246 0.0 0.0 0.00 0.00 0.00 77 1006.6
20260509053459 11 246 0.0 0.0 0.00 0.00 0.00 77 1006.6
20260509052959 11 246 0.0 0.0 0.00 0.00 0.00 77 1006.6
20260509052458 11 246 0.0 0.0 0.00 0.00 0.00 77 1006.6
20260509052000 11 246 0.0 0.0 0.00 0.00 0.00 77 1006.5
20260509050959 11 246 0.0 0.0 0.00 0.00 0.00 77 1006.5
20260509050458 11 246 0.0 0.0 0.00 0.00 0.00 76 1006.5
20260509050005 11 246 0.0 0.0 0.00 0.00 0.00 76 1006.4
20260509045500 11 246 0.0 0.0 0.00 0.00 0.00 76 1006.4
20260509043459 11 246 0.0 0.0 0.00 0.00 0.00 75 1006.3
20260509042959 12 246 0.0 0.0 0.00 0.00 0.00 75 1006.3
20260509042502 12 246 0.0 0.0 0.00 0.00 0.00 75 1006.2
20260509042000 12 246 0.0 0.0 0.00 0.00 0.00 75 1006.2
20260509041002 12 246 0.0 0.0 0.00 0.00 0.00 73 1006.1
20260509040002 13 246 0.0 0.0 0.00 0.00 0.00 72 1005.9
20260509035458 13 246 0.0 0.0 0.00 0.00 0.00 71 1005.9
20260509034959 13 246 0.0 0.0 0.00 0.00 0.00 70 1005.8
20260509034459 13 246 0.0 0.0 0.00 0.00 0.00 70 1005.7
20260509033959 13 246 0.0 0.0 0.00 0.00 0.00 70 1005.7
20260509031959 14 246 0.0 0.0 0.00 0.00 0.00 67 1005.4
20260509031505 15 246 0.0 0.0 0.00 0.00 0.00 67 1005.5
20260509030502 15 246 0.0 0.0 0.00 0.00 0.00 66 1005.4
20260509030006 15 246 0.0 0.0 0.00 0.00 0.00 65 1005.3
20260509025508 15 246 0.0 0.0 0.00 0.00 0.00 65 1005.3
20260509025007 15 246 0.0 3.2 0.00 0.00 0.00 64 1005.2
20260509024459 15 246 0.0 3.2 0.00 0.00 0.00 64 1005.2
20260509024000 15 246 0.0 3.2 0.00 0.00 0.00 63 1005.1
20260509022959 16 246 0.0 3.2 0.00 0.00 0.00 62 1005.1
20260509022459 16 246 0.0 6.4 0.00 0.00 0.00 61 1005.1
20260509021959 16 246 0.0 6.4 0.00 0.00 0.00 60 1005.2
20260509021500 16 247 0.0 1.6 0.00 0.00 0.00 61 1005.2
20260509020959 -17 0.0 0.0 0.00 0.00 0.00 1005.2
20260509020500 -17 0.0 0.0 0.00 0.00 0.00 1005.2
20260509015959 -17 0.0 0.0 0.00 0.00 0.00 1005.2
20260509015000 -17 0.0 0.0 0.00 0.00 0.00 1005.2
20260509014458 -17 0.0 0.0 0.00 0.00 0.00 1005.2
20260509013458 -17 0.0 0.0 0.00 0.00 0.00 1005.2
20260509013001 -17 0.0 0.0 0.00 0.00 0.00 1005.2
20260509011006 -17 0.0 0.0 0.00 0.00 0.00 1005.2
20260509010509 -17 0.0 0.0 0.00 0.00 0.00 1005.3
20260509010005 -17 0.0 0.0 0.00 0.00 0.00 1005.3
20260509005458 -17 0.0 0.0 0.00 0.00 0.00 1005.3
20260509004958 16 292 0.0 9.7 0.00 0.00 0.00 55 1005.3
20260509004458 16 292 0.0 9.7 0.00 0.00 0.00 55 1005.3
20260509003959 16 292 0.0 9.7 0.00 0.00 0.00 55 1005.2
20260509003000 17 250 1.6 1054.1 14.43 1.73 0.00 53
20260509002459 17 253 0.0 8.0 0.00 0.00 0.00 53 1005.1
20260509001959 17 263 1.6 11.3 0.00 0.00 0.00 52 1005.2
20260509001506 17 236 3.2 12.9 0.00 0.00 0.00 52 1005.3
20260509000458 17 261 1.6 9.7 0.00 0.00 0.00 52 1005.0
20260508235958 17 233 3.2 9.7 0.00 0.00 0.00 52 1005.0
20260508235458 17 249 3.2 11.3 0.00 0.00 0.00 52 1005.0
20260508234502 17 263 3.2 9.7 0.00 0.00 0.00 53 1004.9
20260508233958 17 263 0.0 8.0 0.00 0.00 0.00 53 1005.0
20260508233502 17 260 3.2 11.3 0.00 0.00 0.00 53 1005.0
20260508232504 17 146 0.0 9.7 0.00 0.00 0.00 53 1005.0
20260508231959 17 256 3.2 9.7 0.00 0.00 0.00 52 1005.0
20260508231459 17 227 6.4 12.9 0.00 0.00 0.00 52 1005.1
20260508231001 17 221 6.4 12.9 0.00 0.00 0.00 53 1004.9
20260508230500 17 244 4.8 12.9 0.00 0.00 0.00 52 1005.0
20260508225000 17 281 12.9 17.7 0.00 0.00 0.00 55 1005.0
20260508224459 17 232 4.8 17.7 0.00 0.00 0.00 54 1005.1
20260508223958 17 247 3.2 11.3 0.00 0.00 0.00 54 1005.0
20260508223500 17 234 4.8 16.1 0.00 0.00 0.00 56 1004.9
20260508222958 17 219 8.0 16.1 0.00 0.00 0.00 53 1004.9
20260508222459 17 242 1.6 12.9 0.00 0.00 0.00 53 1005.0
20260508221959 17 251 3.2 9.7 0.00 0.00 0.00 53 1004.9
20260508221458 17 196 4.8 11.3 0.00 0.00 0.00 55 1004.9
20260508220958 17 249 6.4 11.3 0.00 0.00 0.00 54 1004.8
20260508220459 17 263 3.2 11.3 0.00 0.00 0.00 53 1004.8
20260508215959 17 297 0.0 12.9 0.00 0.00 0.00 54 1004.8
20260508213959 17 226 4.8 9.7 0.00 0.00 0.00 55 1004.8
20260508213503 17 249 8.0 9.7 0.00 0.00 0.00 53 1004.8
20260508212959 17 256 4.8 12.9 0.00 0.00 0.00 55 1004.8
20260508212458 17 245 6.4 12.9 0.00 0.00 0.00 54 1004.9
20260508212000 17 236 4.8 8.0 0.00 0.00 0.00 56 1004.9
20260508211000 16 223 8.0 19.3 0.00 0.00 0.00 55 1004.9
20260508210458 16 248 0.0 8.0 0.00 0.00 0.00 59 1004.9
20260508205958 16 215 1.6 11.3 0.00 0.00 0.00 56 1005.0
20260508205459 16 273 0.0 11.3 0.00 0.00 0.00 57 1005.0
20260508205000 16 246 0.0 6.4 0.00 0.00 0.00 58 1005.0
20260508203959 16 246 1.6 9.7 0.00 0.00 0.00 60 1005.1
20260508203459 16 211 8.0 9.7 0.00 0.00 0.00 58 1005.1
20260508202459 16 223 4.8 11.3 0.00 0.00 0.00 58 1005.2
20260508201500 16 234 4.8 12.9 0.00 0.00 0.00 60 1005.2
20260508200959 15 261 3.2 12.9 0.00 0.00 0.00 61 1005.3
20260508195505 15 252 6.4 16.1 0.00 0.00 0.00 62 1005.3
20260508194459 15 225 3.2 12.9 0.00 0.00 0.00 63 1005.2
20260508194001 15 272 1.6 12.9 0.00 0.00 0.00 66 1005.2
20260508193458 14 257 4.8 12.9 0.00 0.00 0.00 67 1005.2
20260508192959 14 288 1.6 12.9 0.00 0.00 0.00 66 1005.3
20260508192500 14 245 9.7 16.1 0.00 0.00 0.00 65 1005.3
20260508191958 14 298 3.2 16.1 0.00 0.00 0.00 64 1005.5
20260508191459 15 308 3.2 8.0 0.00 0.00 0.00 64 1005.4
20260508190504 14 231 8.0 16.1 0.00 0.00 0.00 66 1005.4
20260508185957 14 251 8.0 16.1 0.00 0.00 0.00 67 1005.5
20260508185459 14 311 3.2 12.9 0.00 0.00 0.00 67 1005.5
20260508184958 14 290 0.0 12.9 0.00 0.00 0.00 68 1005.3
20260508184500 13 247 4.8 12.9 0.00 0.00 0.00 69 1005.2
20260508183500 13 204 8.0 11.3 0.00 0.00 0.00 69 1005.2
20260508183003 13 256 6.4 14.5 0.00 0.00 0.00 70 1005.2
20260508182459 13 206 9.7 16.1 0.00 0.00 0.00 71 1005.2
20260508182004 13 233 4.8 16.1 0.00 0.00 0.00 68 1005.1
20260508180959 13 261 4.8 16.1 0.00 0.00 0.00 71 1005.0
20260508180459 13 247 3.2 12.9 0.00 0.00 0.00 70 1004.9
20260508175957 13 227 4.8 11.3 0.00 0.00 0.00 70 1004.8
20260508174958 12 300 4.8 11.3 0.00 0.00 0.00 72 1004.7
20260508174459 13 300 4.8 11.3 0.00 0.00 0.00 73 1004.7
20260508173959 12 231 3.2 9.7 0.00 0.00 0.00 72 1004.6
20260508173459 12 247 3.2 8.0 0.00 0.00 0.00 75 1004.5
20260508172959 11 220 0.0 8.0 0.00 0.00 0.00 74 1004.3
20260508172459 11 220 0.0 8.0 0.00 0.00 0.00 74 1004.5
20260508171458 11 295 1.6 6.4 0.00 0.00 0.00 77 1004.7
20260508170958 11 256 1.6 6.4 0.00 0.00 0.00 77 1004.8
20260508170501 11 241 0.0 1.6 0.00 0.00 0.00 77 1004.5
20260508170010 10 241 0.0 1.6 0.00 0.00 0.00 77 1004.2
20260508165459 10 241 0.0 1.6 0.00 0.00 0.00 77 1004.2
20260508165000 10 241 0.0 1.6 0.00 0.00 0.00 77 1004.1
20260508163959 10 241 1.6 1.6 0.00 0.00 0.00 77 1004.2
20260508163459 9 241 0.0 0.0 0.00 0.00 0.00 77 1004.3
20260508163000 9 241 0.0 1.6 0.00 0.00 0.00 77 1004.4
20260508162000 8 241 0.0 0.0 0.00 0.00 0.00 78 1004.4
20260508161500 8 241 0.0 0.0 0.00 0.00 0.00 79 1004.5
20260508160958 8 241 0.0 0.0 0.00 0.00 0.00 79 1004.6
20260508160459 8 241 0.0 0.0 0.00 0.00 0.00 79 1004.6
20260508160001 8 241 0.0 1.6 0.00 0.00 0.00 79 1004.7
20260508155458 8 241 0.0 3.2 0.00 0.00 0.00 79 1004.8
20260508154959 8 241 0.0 3.2 0.00 0.00 0.00 79 1004.8
20260508154500 8 243 0.0 4.8 0.00 0.00 0.00 79 1004.8
20260508153957 8 253 3.2 6.4 0.00 0.00 0.00 79 1004.9
20260508153458 8 256 1.6 6.4 0.00 0.00 0.00 79 1004.9
20260508153005 8 298 4.8 6.4 0.00 0.00 0.00 78 1005.0
20260508152458 8 253 3.2 6.4 0.00 0.00 0.00 78 1004.9
20260508152001 8 233 0.0 9.7 0.00 0.00 0.00 77 1005.0
20260508151458 8 212 1.6 9.7 0.00 0.00 0.00 76 1004.9
20260508150959 7 258 3.2 8.0 0.00 0.00 0.00 74 1005.0
20260508150458 7 292 1.6 8.0 0.00 0.00 0.00 73 1004.9
20260508145958 7 273 1.6 8.0 0.00 0.00 0.00 72 1004.9
20260508145458 7 258 1.6 9.7 0.00 0.00 0.00 70 1004.8
20260508145001 6 272 0.0 9.7 0.00 0.00 0.00 69 1004.7
20260508144458 6 244 0.0 9.7 0.00 0.00 0.00 69 1004.7
20260508143459 6 238 1.6 9.7 0.00 0.00 0.00 72 1004.4
20260508142959 5 248 0.0 1.6 0.00 0.00 0.00 73 1004.3
20260508142458 5 248 0.0 3.2 0.00 0.00 0.00 74 1004.3
20260508141959 5 248 0.0 3.2 0.00 0.00 0.00 74 1004.2
20260508141458 5 248 1.6 3.2 0.00 0.00 0.00 74 1004.0
20260508140959 5 248 0.0 0.0 0.00 0.00 0.00 75 1004.0
20260508140458 5 248 0.0 0.0 0.00 0.00 0.00 75 1003.9
20260508140002 5 248 0.0 0.0 0.00 0.00 0.00 75 1003.7
20260508135500 5 248 0.0 0.0 0.00 0.00 0.00 76 1003.6
20260508134958 5 248 0.0 0.0 0.00 0.00 0.00 76 1003.4
20260508134458 5 248 0.0 0.0 0.00 0.00 0.00 76 1003.4
20260508133958 5 248 0.0 0.0 0.00 0.00 0.00 76 1003.3
20260508133458 -17 0.0 0.0 0.00 0.00 0.00 1003.2
20260508132959 -17 0.0 0.0 0.00 0.00 0.00 1003.1
20260508132459 -17 0.0 0.0 0.00 0.00 0.00 1003.1
20260508131959 -17 0.0 0.0 0.00 0.00 0.00 1003.1
20260508131458 -17 0.0 0.0 0.00 0.00 0.00 1003.0
20260508130959 -17 0.0 0.0 0.00 0.00 0.00 1002.9
20260508130459 -17 0.0 0.0 0.00 0.00 0.00 1002.9
20260508125458 -17 0.0 0.0 0.00 0.00 0.00 1002.8
20260508124958 -17 0.0 0.0 0.00 0.00 0.00 1002.8
20260508124000 -17 0.0 0.0 0.00 0.00 0.00 1002.7
20260508123500 -17 0.0 0.0 0.00 0.00 0.00 1002.7
20260508122959 -17 0.0 0.0 0.00 0.00 0.00 1002.8
20260508122500 -17 0.0 0.0 0.00 0.00 0.00 1002.7
20260508122000 -17 0.0 0.0 0.00 0.00 0.00 1002.7
20260508121458 -17 0.0 0.0 0.00 0.00 0.00 1002.8
20260508120459 -17 0.0 0.0 0.00 0.00 0.00 1002.6
20260508120003 -17 0.0 0.0 0.00 0.00 0.00 1002.5
20260508115459 -17 0.0 0.0 0.00 0.00 0.00 1002.4
20260508114959 -17 0.0 0.0 0.00 0.00 0.00 1002.4
20260508114502 -17 0.0 0.0 0.00 0.00 0.00 1002.4
20260508113959 -17 0.0 0.0 0.00 0.00 0.00 1002.3
20260508113459 -17 0.0 0.0 0.00 0.00 0.00 1002.3
20260508112500 -17 0.0 0.0 0.00 0.00 0.00 1002.4
20260508112003 -17 0.0 0.0 0.00 0.00 0.00 1002.2
20260508111501 -17 0.0 0.0 0.00 0.00 0.00 1002.2
20260508110959 -17 0.0 0.0 0.00 0.00 0.00 1002.2
20260508110459 -17 0.0 0.0 0.00 0.00 0.00 1002.1
20260508110000 -17 0.0 0.0 0.00 0.00 0.00 1002.0
20260508105458 -17 0.0 0.0 0.00 0.00 0.00 1002.0
20260508105000 -17 0.0 0.0 0.00 0.00 0.00 1001.9
20260508104503 -17 0.0 0.0 0.00 0.00 0.00 1001.9
20260508103959 -17 0.0 0.0 0.00 0.00 0.00 1001.9
20260508102958 -17 0.0 0.0 0.00 0.00 0.00 1001.8
20260508102459 -17 0.0 0.0 0.00 0.00 0.00 1001.8
20260508101959 -17 0.0 0.0 0.00 0.00 0.00 1001.8
20260508101458 -17 0.0 0.0 0.00 0.00 0.00 1001.8
20260508100500 -17 0.0 0.0 0.00 0.00 0.00 1001.8
20260508095458 -17 0.0 0.0 0.00 0.00 0.00 1001.8
20260508094959 -17 0.0 0.0 0.00 0.00 0.00 1001.8
20260508094459 -17 0.0 0.0 0.00 0.00 0.00 1001.7
20260508093458 -17 0.0 0.0 0.00 0.00 0.00 1001.6
20260508092958 -17 0.0 0.0 0.00 0.00 0.00 1001.5
20260508091959 -17 0.0 0.0 0.00 0.00 0.00 1001.5
20260508091457 -17 0.0 0.0 0.00 0.00 0.00 1001.5
20260508090959 -17 0.0 0.0 0.00 0.00 0.00 1001.5
20260508090000 -17 0.0 0.0 0.00 0.00 0.00 1001.4
20260508084500 -17 0.0 0.0 0.00 0.00 0.00 1001.4
20260508084000 -17 0.0 0.0 0.00 0.00 0.00 1001.4
20260508083457 -17 0.0 0.0 0.00 0.00 0.00 1001.4
20260508083001 -17 0.0 0.0 0.00 0.00 0.00 1001.4
20260508082507 -17 0.0 0.0 0.00 0.00 0.00 1001.4
20260508082002 -17 0.0 0.0 0.00 0.00 0.00 1001.4
20260508081500 -17 0.0 0.0 0.00 0.00 0.00 1001.3
20260508081009 -17 0.0 0.0 0.00 0.00 0.00 1001.4
20260508080011 -17 0.0 0.0 0.00 0.00 0.00 1001.3
20260508075001 -17 0.0 0.0 0.00 0.00 0.00 1001.3
20260508074459 -17 0.0 0.0 0.00 0.00 0.00 1001.3
20260508074001 -17 0.0 0.0 0.00 0.00 0.00 1001.3
20260508073457 -17 0.0 0.0 0.00 0.00 0.00 1001.4